createdAt,value
2023-05-10T00:00:11.054Z,5.65
2023-05-10T00:04:12.552Z,8.80
2023-05-10T00:08:14.028Z,9.20
2023-05-10T00:12:15.504Z,9.52
2023-05-10T00:16:16.954Z,6.75
2023-05-10T00:20:18.695Z,7.30
2023-05-10T00:24:20.318Z,6.80
2023-05-10T00:28:21.753Z,6.93
2023-05-10T00:32:23.319Z,7.10
2023-05-10T00:36:24.891Z,7.57
2023-05-10T00:40:26.473Z,8.60
2023-05-10T00:44:28.379Z,6.65
2023-05-10T00:48:30.282Z,6.22
2023-05-10T00:52:31.948Z,9.93
2023-05-10T00:56:33.633Z,7.38
2023-05-10T01:00:35.708Z,6.82
2023-05-10T01:04:38.554Z,6.40
2023-05-10T01:08:40.529Z,6.13
2023-05-10T01:12:46.002Z,9.55
2023-05-10T01:16:49.336Z,9.13
2023-05-10T01:21:06.168Z,6.78
2023-05-10T01:25:18.901Z,7.15
2023-05-10T01:29:23.260Z,8.85
2023-05-10T01:33:47.838Z,6.60
2023-05-10T01:38:15.181Z,7.25
2023-05-10T01:42:25.800Z,8.48
2023-05-10T01:46:38.465Z,6.45
2023-05-10T01:50:44.173Z,6.88
2023-05-10T01:55:16.274Z,6.00
2023-05-10T01:59:20.198Z,8.23
2023-05-10T02:03:24.457Z,10.30
2023-05-10T02:07:29.422Z,11.95
2023-05-10T02:11:32.190Z,13.27
2023-05-10T02:15:35.530Z,8.00
2023-05-10T02:19:42.940Z,9.32
2023-05-10T02:23:46.149Z,7.93
2023-05-10T02:27:49.247Z,7.40
2023-05-10T02:31:54.934Z,7.45
2023-05-10T02:35:57.562Z,10.77
2023-05-10T02:39:59.460Z,7.32
2023-05-10T02:44:03.781Z,9.88
2023-05-10T02:48:05.736Z,6.93
2023-05-10T02:52:10.068Z,12.10
2023-05-10T02:56:18.145Z,6.90
2023-05-10T03:00:19.968Z,7.03
2023-05-10T03:04:21.611Z,8.45
2023-05-10T03:08:24.394Z,7.90
2023-05-10T03:12:38.211Z,7.53
2023-05-10T03:16:50.381Z,9.65
2023-05-10T03:21:00.444Z,9.13
2023-05-10T03:25:07.165Z,7.43
2023-05-10T03:29:10.109Z,9.52
2023-05-10T03:33:11.890Z,8.60
2023-05-10T03:37:13.321Z,7.55
2023-05-10T03:41:15.049Z,6.72
2023-05-10T03:45:16.661Z,9.02
2023-05-10T03:49:18.233Z,5.72
2023-05-10T03:53:19.680Z,7.60
2023-05-10T03:57:21.092Z,6.80
2023-05-10T04:01:22.521Z,5.70
2023-05-10T04:05:23.974Z,5.60
2023-05-10T04:09:26.209Z,7.47
2023-05-10T04:13:27.708Z,7.05
2023-05-10T04:17:29.215Z,6.63
2023-05-10T04:21:31.350Z,8.05
2023-05-10T04:25:35.623Z,7.10
2023-05-10T04:29:37.078Z,7.18
2023-05-10T04:33:38.548Z,8.07
2023-05-10T04:37:39.999Z,7.32
2023-05-10T04:41:41.520Z,5.82
2023-05-10T04:45:43.192Z,7.88
2023-05-10T04:49:44.603Z,5.40
2023-05-10T04:53:54.187Z,9.98
2023-05-10T04:58:03.864Z,7.88
2023-05-10T05:02:06.295Z,9.07
2023-05-10T05:06:07.982Z,5.07
2023-05-10T05:10:09.786Z,5.13
2023-05-10T05:14:11.263Z,8.77
2023-05-10T05:18:13.092Z,5.18
2023-05-10T05:22:14.565Z,5.40
2023-05-10T05:26:18.098Z,7.30
2023-05-10T05:30:19.637Z,4.80
2023-05-10T05:34:22.396Z,6.53
2023-05-10T05:38:24.608Z,6.43
2023-05-10T05:42:26.706Z,3.40
2023-05-10T05:46:28.159Z,3.95
2023-05-10T05:50:29.629Z,4.22
2023-05-10T05:54:32.261Z,8.43
2023-05-10T05:58:34.236Z,3.83
2023-05-10T06:02:35.853Z,6.55
2023-05-10T06:06:37.379Z,3.85
2023-05-10T06:10:38.852Z,4.45
2023-05-10T06:14:40.253Z,3.35
2023-05-10T06:18:42.068Z,4.60
2023-05-10T06:22:43.838Z,5.00
2023-05-10T06:26:45.364Z,4.22
2023-05-10T06:30:46.874Z,4.32
2023-05-10T06:34:48.412Z,8.52
2023-05-10T06:38:49.874Z,3.15
2023-05-10T06:42:51.675Z,3.63
2023-05-10T06:46:54.401Z,3.58
2023-05-10T06:50:55.954Z,3.22
2023-05-10T06:54:57.398Z,3.95
2023-05-10T06:58:58.874Z,5.13
2023-05-10T07:03:00.417Z,4.22
2023-05-10T07:07:01.923Z,3.05
2023-05-10T07:11:11.278Z,4.22
2023-05-10T07:15:13.263Z,4.82
2023-05-10T07:19:15.008Z,5.32
2023-05-10T07:23:16.522Z,4.30
2023-05-10T07:27:18.171Z,2.85
2023-05-10T07:31:19.625Z,6.65
2023-05-10T07:35:21.267Z,4.43
2023-05-10T07:39:27.727Z,4.07
2023-05-10T07:43:29.822Z,5.60
2023-05-10T07:47:31.308Z,3.53
2023-05-10T07:51:32.724Z,4.15
2023-05-10T07:55:34.264Z,3.22
2023-05-10T07:59:35.710Z,5.57
2023-05-10T08:03:37.347Z,3.20
2023-05-10T08:07:39.124Z,3.42
2023-05-10T08:11:40.584Z,5.25
2023-05-10T08:15:42.146Z,2.80
2023-05-10T08:19:43.608Z,7.85
2023-05-10T08:23:45.360Z,3.72
2023-05-10T08:27:46.842Z,2.67
2023-05-10T08:31:48.423Z,2.95
2023-05-10T08:35:49.961Z,4.25
2023-05-10T08:39:51.475Z,6.00
2023-05-10T08:43:54.773Z,3.47
2023-05-10T08:47:56.395Z,3.55
2023-05-10T08:52:00.570Z,3.70
2023-05-10T08:56:03.372Z,3.30
2023-05-10T09:00:05.710Z,3.08
2023-05-10T09:04:07.265Z,2.67
2023-05-10T09:08:10.005Z,4.32
2023-05-10T09:12:12.534Z,6.28
2023-05-10T09:20:22.101Z,3.08
2023-05-10T09:24:28.033Z,2.47
2023-05-10T09:28:32.844Z,6.07
2023-05-10T09:32:45.422Z,5.18
2023-05-10T09:36:54.879Z,2.97
2023-05-10T09:40:56.892Z,3.42
2023-05-10T09:45:05.652Z,4.25
2023-05-10T09:49:07.491Z,6.22
2023-05-10T09:53:08.924Z,7.03
2023-05-10T09:57:21.068Z,7.10
2023-05-10T10:01:27.368Z,2.80
2023-05-10T10:05:33.137Z,7.57
2023-05-10T10:09:35.814Z,6.88
2023-05-10T10:13:38.595Z,4.28
2023-05-10T10:17:41.734Z,3.53
2023-05-10T10:21:43.487Z,3.13
2023-05-10T10:25:45.879Z,4.13
2023-05-10T10:29:53.359Z,4.45
2023-05-10T10:34:15.022Z,3.90
2023-05-10T10:38:17.412Z,3.65
2023-05-10T10:42:48.266Z,9.63
2023-05-10T10:47:10.245Z,3.00
2023-05-10T10:51:14.223Z,4.40
2023-05-10T10:55:23.445Z,2.75
2023-05-10T10:59:29.096Z,6.53
2023-05-10T11:03:30.595Z,3.63
2023-05-10T11:07:32.223Z,4.32
2023-05-10T11:11:35.862Z,4.45
2023-05-10T11:15:39.860Z,7.35
2023-05-10T11:20:07.419Z,2.83
2023-05-10T11:24:15.579Z,4.40
2023-05-10T11:28:20.479Z,3.28
2023-05-10T11:32:22.721Z,2.83
2023-05-10T11:36:29.462Z,5.60
2023-05-10T11:40:31.625Z,2.05
2023-05-10T11:44:33.696Z,2.95
2023-05-10T11:48:35.435Z,2.13
2023-05-10T11:52:40.360Z,4.88
2023-05-10T11:56:42.274Z,4.55
2023-05-10T12:00:44.004Z,6.47
2023-05-10T12:04:45.769Z,2.83
2023-05-10T12:08:48.527Z,3.75
2023-05-10T12:12:53.419Z,3.50
2023-05-10T12:16:55.138Z,2.58
2023-05-10T12:21:04.697Z,3.10
2023-05-10T12:25:06.698Z,3.33
2023-05-10T12:29:20.885Z,3.17
2023-05-10T12:33:22.316Z,3.85
2023-05-10T12:37:28.799Z,3.58
2023-05-10T12:41:30.416Z,2.88
2023-05-10T12:45:31.913Z,3.03
2023-05-10T12:49:33.383Z,4.70
2023-05-10T12:53:34.886Z,4.25
2023-05-10T12:57:36.382Z,4.45
2023-05-10T13:01:38.071Z,3.95
2023-05-10T13:05:39.734Z,3.45
2023-05-10T13:09:41.213Z,5.25
2023-05-10T13:13:42.766Z,4.35
2023-05-10T13:17:44.520Z,3.03
2023-05-10T13:21:46.089Z,4.38
2023-05-10T13:25:47.619Z,3.28
2023-05-10T13:29:49.258Z,4.40
2023-05-10T13:33:50.985Z,2.53
2023-05-10T13:37:54.285Z,4.45
2023-05-10T13:41:55.840Z,2.78
2023-05-10T13:45:57.726Z,2.90
2023-05-10T13:49:59.435Z,2.50
2023-05-10T13:54:01.133Z,5.47
2023-05-10T13:58:02.630Z,4.05
2023-05-10T14:02:04.783Z,4.50
2023-05-10T14:06:08.324Z,3.47
2023-05-10T14:10:10.108Z,4.93
2023-05-10T14:14:11.642Z,2.88
2023-05-10T14:18:13.053Z,2.58
2023-05-10T14:22:14.478Z,2.35
2023-05-10T14:26:15.926Z,3.00
2023-05-10T14:30:17.429Z,5.20
2023-05-10T14:34:18.917Z,2.67
2023-05-10T14:38:20.355Z,5.13
2023-05-10T14:42:22.219Z,2.45
2023-05-10T14:46:23.719Z,3.72
2023-05-10T14:54:34.670Z,2.05
2023-05-10T14:58:36.339Z,3.00
2023-05-10T15:02:37.886Z,3.88
2023-05-10T15:06:39.696Z,4.97
2023-05-10T15:10:41.161Z,5.72
2023-05-10T15:14:42.645Z,3.53
2023-05-10T15:18:44.148Z,5.18
2023-05-10T15:22:45.750Z,3.05
2023-05-10T15:26:47.160Z,4.78
2023-05-10T15:30:48.670Z,3.08
2023-05-10T15:34:50.106Z,2.13
2023-05-10T15:38:51.538Z,2.38
2023-05-10T15:42:53.099Z,4.70
2023-05-10T15:46:54.588Z,7.05
2023-05-10T15:50:56.797Z,3.80
2023-05-10T15:54:58.217Z,5.45
2023-05-10T15:58:59.759Z,7.43
2023-05-10T16:03:01.435Z,8.73
2023-05-10T16:07:03.162Z,5.13
2023-05-10T16:11:04.671Z,6.82
2023-05-10T16:15:07.088Z,4.30
2023-05-10T16:19:08.652Z,5.60
2023-05-10T16:23:10.457Z,4.47
2023-05-10T16:27:13.249Z,5.60
2023-05-10T16:31:14.783Z,6.13
2023-05-10T16:35:16.605Z,4.30
2023-05-10T16:39:18.314Z,4.43
2023-05-10T16:43:19.796Z,5.50
2023-05-10T16:47:21.269Z,4.40
2023-05-10T16:51:22.717Z,4.60
2023-05-10T16:55:26.370Z,4.75
2023-05-10T16:59:27.993Z,4.80
2023-05-10T17:03:29.581Z,5.88
2023-05-10T17:07:31.162Z,4.63
2023-05-10T17:11:32.917Z,4.90
2023-05-10T17:15:37.663Z,4.88
2023-05-10T17:19:39.221Z,5.53
2023-05-10T17:23:40.773Z,4.90
2023-05-10T17:27:42.771Z,4.22
2023-05-10T17:31:44.260Z,4.30
2023-05-10T17:35:46.440Z,6.80
2023-05-10T17:39:47.860Z,6.45
2023-05-10T17:43:49.321Z,8.40
2023-05-10T17:47:51.984Z,5.63
2023-05-10T17:51:53.476Z,5.60
2023-05-10T17:55:58.826Z,4.07
2023-05-10T18:00:02.115Z,4.40
2023-05-10T18:04:04.627Z,9.13
2023-05-10T18:08:07.354Z,4.18
2023-05-10T18:12:08.787Z,6.03
2023-05-10T18:16:12.873Z,3.85
2023-05-10T18:20:14.486Z,5.03
2023-05-10T18:24:16.933Z,4.65
2023-05-10T18:28:24.715Z,7.72
2023-05-10T18:32:26.235Z,19.58
2023-05-10T18:36:28.188Z,6.70
2023-05-10T18:40:29.817Z,6.07
2023-05-10T18:44:31.565Z,5.88
2023-05-10T18:48:33.044Z,6.95
2023-05-10T18:52:35.929Z,7.00
2023-05-10T18:56:39.585Z,6.00
2023-05-10T19:00:40.998Z,6.88
2023-05-10T19:04:42.521Z,7.40
2023-05-10T19:08:44.081Z,13.20
2023-05-10T19:12:45.583Z,11.00
2023-05-10T19:16:49.239Z,9.30
2023-05-10T19:20:54.800Z,8.60
2023-05-10T19:24:57.572Z,18.70
2023-05-10T19:28:59.100Z,13.18
2023-05-10T19:33:04.332Z,10.10
2023-05-10T19:37:06.000Z,6.38
2023-05-10T19:41:07.482Z,9.80
2023-05-10T19:45:09.820Z,7.65
2023-05-10T19:49:11.284Z,8.07
2023-05-10T19:53:12.758Z,11.70
2023-05-10T19:57:14.336Z,11.50
2023-05-10T20:01:15.893Z,10.55
2023-05-10T20:05:17.619Z,10.45
2023-05-10T20:09:19.304Z,11.00
2023-05-10T20:13:20.804Z,13.55
2023-05-10T20:17:22.479Z,19.10
2023-05-10T20:21:24.130Z,15.10
2023-05-10T20:25:25.839Z,10.88
2023-05-10T20:29:27.366Z,12.68
2023-05-10T20:33:28.844Z,11.35
2023-05-10T20:37:30.955Z,10.30
2023-05-10T20:41:32.486Z,10.65
2023-05-10T20:45:34.753Z,9.68
2023-05-10T20:49:38.000Z,15.70
2023-05-10T20:53:39.491Z,7.90
2023-05-10T20:57:41.001Z,10.10
2023-05-10T21:01:42.565Z,9.18
2023-05-10T21:05:44.760Z,13.02
2023-05-10T21:09:46.272Z,13.65
2023-05-10T21:13:47.740Z,8.68
2023-05-10T21:17:49.426Z,8.32
2023-05-10T21:21:51.099Z,12.23
2023-05-10T21:25:53.550Z,15.38
2023-05-10T21:29:55.055Z,9.63
2023-05-10T21:33:57.084Z,8.15
2023-05-10T21:37:58.573Z,7.78
2023-05-10T21:42:00.311Z,8.57
2023-05-10T21:46:01.839Z,10.18
2023-05-10T21:50:03.652Z,7.22
2023-05-10T21:54:05.197Z,6.68
2023-05-10T21:58:06.986Z,10.23
2023-05-10T22:02:08.534Z,9.55
2023-05-10T22:06:10.043Z,9.20
2023-05-10T22:10:11.533Z,10.68
2023-05-10T22:14:12.945Z,6.57
2023-05-10T22:18:14.369Z,5.88
2023-05-10T22:22:15.861Z,6.97
2023-05-10T22:26:17.271Z,8.80
2023-05-10T22:30:19.823Z,6.70
2023-05-10T22:34:21.565Z,7.18
2023-05-10T22:38:23.021Z,7.00
2023-05-10T22:42:24.514Z,7.10
2023-05-10T22:46:26.008Z,6.53
2023-05-10T22:50:29.176Z,6.53
2023-05-10T22:54:30.754Z,8.32
2023-05-10T22:58:32.382Z,8.02
2023-05-10T23:02:34.870Z,6.32
2023-05-10T23:06:36.337Z,8.90
2023-05-10T23:10:38.358Z,6.80
2023-05-10T23:14:41.462Z,6.55
2023-05-10T23:18:43.138Z,8.25
2023-05-10T23:22:44.914Z,8.35
2023-05-10T23:26:47.074Z,10.90
2023-05-10T23:30:55.007Z,11.05
2023-05-10T23:34:56.464Z,9.55
2023-05-10T23:38:57.890Z,11.20
2023-05-10T23:42:59.418Z,11.65
2023-05-10T23:47:00.905Z,10.45
2023-05-10T23:51:02.445Z,10.60
2023-05-10T23:55:04.102Z,11.18
2023-05-10T23:59:08.735Z,11.80
